sensor_id;sensor_type;location;lat;lon;timestamp;pressure;altitude;pressure_sealevel;temperature;humidity
7668;BME280;3876;42.204;24.686;2024-03-25T00:01:32;97784.53;;;11.57;100.00
7668;BME280;3876;42.204;24.686;2024-03-25T00:03:59;97793.88;;;11.58;100.00
7668;BME280;3876;42.204;24.686;2024-03-25T00:06:26;97785.47;;;11.56;100.00
7668;BME280;3876;42.204;24.686;2024-03-25T00:08:52;97779.59;;;11.69;100.00
7668;BME280;3876;42.204;24.686;2024-03-25T00:11:18;97771.13;;;11.67;100.00
7668;BME280;3876;42.204;24.686;2024-03-25T00:13:44;97751.16;;;11.57;100.00
7668;BME280;3876;42.204;24.686;2024-03-25T00:16:11;97764.94;;;11.71;100.00
7668;BME280;3876;42.204;24.686;2024-03-25T00:18:37;97768.06;;;11.76;100.00
7668;BME280;3876;42.204;24.686;2024-03-25T00:21:05;97769.31;;;11.83;100.00
7668;BME280;3876;42.204;24.686;2024-03-25T00:23:31;97757.88;;;11.74;100.00
7668;BME280;3876;42.204;24.686;2024-03-25T00:25:58;97757.41;;;11.68;100.00
7668;BME280;3876;42.204;24.686;2024-03-25T00:28:23;97746.78;;;11.59;100.00
7668;BME280;3876;42.204;24.686;2024-03-25T00:30:50;97736.88;;;11.53;100.00
7668;BME280;3876;42.204;24.686;2024-03-25T00:33:16;97724.03;;;11.53;100.00
7668;BME280;3876;42.204;24.686;2024-03-25T00:35:43;97729.34;;;11.50;100.00
7668;BME280;3876;42.204;24.686;2024-03-25T00:38:10;97740.38;;;11.52;100.00
7668;BME280;3876;42.204;24.686;2024-03-25T00:40:37;97746.03;;;11.57;100.00
7668;BME280;3876;42.204;24.686;2024-03-25T00:43:03;97730.38;;;11.48;100.00
7668;BME280;3876;42.204;24.686;2024-03-25T00:45:30;97749.06;;;11.64;100.00
7668;BME280;3876;42.204;24.686;2024-03-25T00:47:56;97755.94;;;11.64;100.00
7668;BME280;3876;42.204;24.686;2024-03-25T00:50:22;97762.53;;;11.68;100.00
7668;BME280;3876;42.204;24.686;2024-03-25T00:52:48;97760.06;;;11.80;100.00
7668;BME280;3876;42.204;24.686;2024-03-25T00:55:16;97736.31;;;11.77;100.00
7668;BME280;3876;42.204;24.686;2024-03-25T00:57:42;97768.47;;;11.96;100.00
7668;BME280;3876;42.204;24.686;2024-03-25T01:00:10;97768.94;;;12.03;100.00
7668;BME280;3876;42.204;24.686;2024-03-25T01:02:36;97772.34;;;11.89;100.00
7668;BME280;3876;42.204;24.686;2024-03-25T01:05:03;97804.53;;;11.81;100.00
7668;BME280;3876;42.204;24.686;2024-03-25T01:07:30;97818.84;;;11.71;100.00
7668;BME280;3876;42.204;24.686;2024-03-25T01:09:57;97837.56;;;11.73;100.00
7668;BME280;3876;42.204;24.686;2024-03-25T01:12:25;97873.13;;;11.79;100.00
7668;BME280;3876;42.204;24.686;2024-03-25T01:14:52;97894.03;;;11.73;100.00
7668;BME280;3876;42.204;24.686;2024-03-25T01:17:18;97918.03;;;11.72;100.00
7668;BME280;3876;42.204;24.686;2024-03-25T01:19:45;97911.59;;;11.65;100.00
7668;BME280;3876;42.204;24.686;2024-03-25T01:22:10;97917.53;;;11.65;100.00
7668;BME280;3876;42.204;24.686;2024-03-25T01:24:37;97909.84;;;11.65;100.00
7668;BME280;3876;42.204;24.686;2024-03-25T01:27:03;97907.16;;;11.67;100.00
7668;BME280;3876;42.204;24.686;2024-03-25T01:29:31;97898.38;;;11.56;100.00
7668;BME280;3876;42.204;24.686;2024-03-25T01:31:58;97895.47;;;11.33;100.00
7668;BME280;3876;42.204;24.686;2024-03-25T01:34:25;97916.81;;;11.33;100.00
7668;BME280;3876;42.204;24.686;2024-03-25T01:36:51;97916.25;;;10.98;100.00
7668;BME280;3876;42.204;24.686;2024-03-25T01:39:18;97917.31;;;10.94;100.00
7668;BME280;3876;42.204;24.686;2024-03-25T01:41:43;97902.84;;;10.78;100.00
7668;BME280;3876;42.204;24.686;2024-03-25T01:44:10;97913.44;;;10.72;100.00
7668;BME280;3876;42.204;24.686;2024-03-25T01:46:37;97923.19;;;10.65;100.00
7668;BME280;3876;42.204;24.686;2024-03-25T01:49:05;97922.78;;;10.57;100.00
7668;BME280;3876;42.204;24.686;2024-03-25T01:51:32;97942.34;;;10.42;100.00
7668;BME280;3876;42.204;24.686;2024-03-25T01:54:00;97950.75;;;10.29;100.00
7668;BME280;3876;42.204;24.686;2024-03-25T01:56:26;97965.25;;;9.95;100.00
7668;BME280;3876;42.204;24.686;2024-03-25T01:58:55;97976.03;;;9.68;100.00
7668;BME280;3876;42.204;24.686;2024-03-25T02:01:22;97995.13;;;9.26;100.00
7668;BME280;3876;42.204;24.686;2024-03-25T02:03:50;97998.94;;;8.99;100.00
7668;BME280;3876;42.204;24.686;2024-03-25T02:06:17;97996.03;;;8.69;100.00
7668;BME280;3876;42.204;24.686;2024-03-25T02:08:44;97977.69;;;8.42;100.00
7668;BME280;3876;42.204;24.686;2024-03-25T02:11:10;97967.34;;;8.46;100.00
7668;BME280;3876;42.204;24.686;2024-03-25T02:13:37;97980.94;;;8.46;100.00
7668;BME280;3876;42.204;24.686;2024-03-25T02:16:04;97968.19;;;8.46;100.00
7668;BME280;3876;42.204;24.686;2024-03-25T02:18:32;97972.09;;;8.34;100.00
7668;BME280;3876;42.204;24.686;2024-03-25T02:20:59;97951.41;;;8.20;100.00
7668;BME280;3876;42.204;24.686;2024-03-25T02:23:26;97964.56;;;8.31;100.00
7668;BME280;3876;42.204;24.686;2024-03-25T02:25:54;97954.78;;;8.21;100.00
7668;BME280;3876;42.204;24.686;2024-03-25T02:28:21;97952.22;;;8.21;100.00
7668;BME280;3876;42.204;24.686;2024-03-25T02:30:46;97955.56;;;8.23;100.00
7668;BME280;3876;42.204;24.686;2024-03-25T02:33:14;97963.97;;;8.25;100.00
7668;BME280;3876;42.204;24.686;2024-03-25T02:35:40;97947.94;;;8.21;100.00
7668;BME280;3876;42.204;24.686;2024-03-25T02:38:08;97952.31;;;8.19;100.00
7668;BME280;3876;42.204;24.686;2024-03-25T02:40:35;97949.94;;;8.15;100.00
7668;BME280;3876;42.204;24.686;2024-03-25T02:43:03;97983.56;;;8.24;100.00
7668;BME280;3876;42.204;24.686;2024-03-25T02:45:29;97985.22;;;8.25;100.00
7668;BME280;3876;42.204;24.686;2024-03-25T02:47:56;97983.41;;;8.27;100.00
7668;BME280;3876;42.204;24.686;2024-03-25T02:50:22;97984.16;;;8.31;100.00
7668;BME280;3876;42.204;24.686;2024-03-25T02:52:48;97965.25;;;8.35;100.00
7668;BME280;3876;42.204;24.686;2024-03-25T02:55:14;97957.78;;;8.30;100.00
7668;BME280;3876;42.204;24.686;2024-03-25T02:57:41;97989.94;;;8.34;100.00
7668;BME280;3876;42.204;24.686;2024-03-25T03:00:09;97997.75;;;8.31;100.00
7668;BME280;3876;42.204;24.686;2024-03-25T03:02:36;98001.84;;;8.35;100.00
7668;BME280;3876;42.204;24.686;2024-03-25T03:05:02;98013.56;;;8.39;100.00
7668;BME280;3876;42.204;24.686;2024-03-25T03:07:29;98003.22;;;8.42;100.00
7668;BME280;3876;42.204;24.686;2024-03-25T03:09:55;97993.75;;;8.44;100.00
7668;BME280;3876;42.204;24.686;2024-03-25T03:12:22;98004.72;;;8.47;100.00
7668;BME280;3876;42.204;24.686;2024-03-25T03:14:47;97989.53;;;8.43;100.00
7668;BME280;3876;42.204;24.686;2024-03-25T03:17:15;97968.78;;;8.32;100.00
7668;BME280;3876;42.204;24.686;2024-03-25T03:19:41;97976.88;;;8.42;100.00
7668;BME280;3876;42.204;24.686;2024-03-25T03:22:08;97965.69;;;8.44;100.00
7668;BME280;3876;42.204;24.686;2024-03-25T03:24:33;97965.53;;;8.48;100.00
7668;BME280;3876;42.204;24.686;2024-03-25T03:27:00;97968.19;;;8.46;100.00
7668;BME280;3876;42.204;24.686;2024-03-25T03:29:26;97961.03;;;8.34;100.00
7668;BME280;3876;42.204;24.686;2024-03-25T03:31:53;97957.53;;;8.36;100.00
7668;BME280;3876;42.204;24.686;2024-03-25T03:34:20;97974.63;;;8.34;100.00
7668;BME280;3876;42.204;24.686;2024-03-25T03:36:47;97962.00;;;8.31;100.00
7668;BME280;3876;42.204;24.686;2024-03-25T03:39:12;97936.56;;;8.10;100.00
7668;BME280;3876;42.204;24.686;2024-03-25T03:41:40;97975.16;;;8.22;100.00
7668;BME280;3876;42.204;24.686;2024-03-25T03:44:05;97970.44;;;8.13;100.00
7668;BME280;3876;42.204;24.686;2024-03-25T03:46:32;97980.53;;;8.16;100.00
7668;BME280;3876;42.204;24.686;2024-03-25T03:48:58;97980.66;;;8.13;100.00
7668;BME280;3876;42.204;24.686;2024-03-25T03:51:27;97994.16;;;8.15;100.00
7668;BME280;3876;42.204;24.686;2024-03-25T03:53:52;97979.38;;;8.03;100.00
7668;BME280;3876;42.204;24.686;2024-03-25T03:56:19;97977.84;;;7.99;100.00
7668;BME280;3876;42.204;24.686;2024-03-25T03:58:45;97994.69;;;8.03;100.00
7668;BME280;3876;42.204;24.686;2024-03-25T04:01:15;97985.06;;;7.89;100.00
7668;BME280;3876;42.204;24.686;2024-03-25T04:03:41;98005.88;;;8.01;100.00
7668;BME280;3876;42.204;24.686;2024-03-25T04:06:09;98005.03;;;8.00;100.00
7668;BME280;3876;42.204;24.686;2024-03-25T04:08:37;97999.47;;;7.90;100.00
7668;BME280;3876;42.204;24.686;2024-03-25T04:11:04;98007.72;;;7.97;100.00
7668;BME280;3876;42.204;24.686;2024-03-25T04:13:31;98012.03;;;7.95;100.00
7668;BME280;3876;42.204;24.686;2024-03-25T04:16:01;98017.25;;;7.92;100.00
7668;BME280;3876;42.204;24.686;2024-03-25T04:18:27;98021.47;;;7.93;100.00
7668;BME280;3876;42.204;24.686;2024-03-25T04:20:54;98020.84;;;7.88;100.00
7668;BME280;3876;42.204;24.686;2024-03-25T04:23:20;98030.94;;;7.91;100.00
7668;BME280;3876;42.204;24.686;2024-03-25T04:25:48;98022.38;;;7.92;100.00
7668;BME280;3876;42.204;24.686;2024-03-25T04:28:14;98023.06;;;7.96;100.00
7668;BME280;3876;42.204;24.686;2024-03-25T04:30:41;98030.53;;;8.00;100.00
7668;BME280;3876;42.204;24.686;2024-03-25T04:33:06;98022.63;;;7.86;100.00
7668;BME280;3876;42.204;24.686;2024-03-25T04:35:33;98017.91;;;7.77;100.00
7668;BME280;3876;42.204;24.686;2024-03-25T04:37:59;98051.22;;;7.94;100.00
7668;BME280;3876;42.204;24.686;2024-03-25T04:40:25;98037.06;;;7.87;100.00
7668;BME280;3876;42.204;24.686;2024-03-25T04:42:52;98052.84;;;7.95;100.00
7668;BME280;3876;42.204;24.686;2024-03-25T04:45:18;98052.63;;;8.01;100.00
7668;BME280;3876;42.204;24.686;2024-03-25T04:47:44;98048.53;;;7.97;100.00
7668;BME280;3876;42.204;24.686;2024-03-25T04:50:09;98042.66;;;7.95;100.00
7668;BME280;3876;42.204;24.686;2024-03-25T04:52:35;98058.50;;;8.03;100.00
7668;BME280;3876;42.204;24.686;2024-03-25T04:55:01;98066.16;;;8.03;100.00
7668;BME280;3876;42.204;24.686;2024-03-25T04:57:27;98076.34;;;8.03;100.00
7668;BME280;3876;42.204;24.686;2024-03-25T04:59:54;98078.03;;;8.04;100.00
7668;BME280;3876;42.204;24.686;2024-03-25T05:02:20;98112.41;;;8.16;100.00
7668;BME280;3876;42.204;24.686;2024-03-25T05:04:45;98098.94;;;8.12;100.00
7668;BME280;3876;42.204;24.686;2024-03-25T05:07:11;98109.69;;;8.20;100.00
7668;BME280;3876;42.204;24.686;2024-03-25T05:09:37;98088.69;;;8.14;100.00
7668;BME280;3876;42.204;24.686;2024-03-25T05:12:03;98111.56;;;8.15;100.00
7668;BME280;3876;42.204;24.686;2024-03-25T05:14:29;98088.34;;;8.01;100.00
7668;BME280;3876;42.204;24.686;2024-03-25T05:16:56;98100.72;;;8.10;100.00
7668;BME280;3876;42.204;24.686;2024-03-25T05:19:21;98103.28;;;8.10;100.00
7668;BME280;3876;42.204;24.686;2024-03-25T05:21:47;98105.00;;;8.10;100.00
7668;BME280;3876;42.204;24.686;2024-03-25T05:24:13;98111.94;;;8.06;100.00
7668;BME280;3876;42.204;24.686;2024-03-25T05:26:39;98108.31;;;8.12;100.00
7668;BME280;3876;42.204;24.686;2024-03-25T05:29:05;98113.63;;;8.07;100.00
7668;BME280;3876;42.204;24.686;2024-03-25T05:31:30;98128.47;;;8.18;100.00
7668;BME280;3876;42.204;24.686;2024-03-25T05:33:57;98120.91;;;8.16;100.00
7668;BME280;3876;42.204;24.686;2024-03-25T05:36:23;98130.59;;;8.30;100.00
7668;BME280;3876;42.204;24.686;2024-03-25T05:38:49;98119.31;;;8.34;100.00
7668;BME280;3876;42.204;24.686;2024-03-25T05:41:15;98139.06;;;8.51;100.00
7668;BME280;3876;42.204;24.686;2024-03-25T05:43:40;98137.91;;;8.58;100.00
7668;BME280;3876;42.204;24.686;2024-03-25T05:46:06;98138.44;;;8.66;100.00
7668;BME280;3876;42.204;24.686;2024-03-25T05:48:32;98144.03;;;8.74;100.00
7668;BME280;3876;42.204;24.686;2024-03-25T05:51:03;98154.06;;;8.78;100.00
7668;BME280;3876;42.204;24.686;2024-03-25T05:53:30;98156.28;;;8.86;100.00
7668;BME280;3876;42.204;24.686;2024-03-25T05:55:56;98156.41;;;8.83;100.00
7668;BME280;3876;42.204;24.686;2024-03-25T05:58:22;98166.13;;;8.75;100.00
7668;BME280;3876;42.204;24.686;2024-03-25T06:00:48;98178.34;;;8.68;100.00
7668;BME280;3876;42.204;24.686;2024-03-25T06:03:14;98178.25;;;8.70;100.00
7668;BME280;3876;42.204;24.686;2024-03-25T06:05:40;98182.63;;;8.68;100.00
7668;BME280;3876;42.204;24.686;2024-03-25T06:08:08;98179.31;;;8.66;100.00
7668;BME280;3876;42.204;24.686;2024-03-25T06:10:37;98177.88;;;8.59;100.00
7668;BME280;3876;42.204;24.686;2024-03-25T06:13:03;98193.41;;;8.74;100.00
7668;BME280;3876;42.204;24.686;2024-03-25T06:15:29;98204.19;;;8.81;100.00
7668;BME280;3876;42.204;24.686;2024-03-25T06:17:55;98195.88;;;8.76;100.00
7668;BME280;3876;42.204;24.686;2024-03-25T06:20:20;98194.38;;;8.72;100.00
7668;BME280;3876;42.204;24.686;2024-03-25T06:22:46;98184.41;;;8.66;100.00
7668;BME280;3876;42.204;24.686;2024-03-25T06:25:13;98188.34;;;8.73;100.00
7668;BME280;3876;42.204;24.686;2024-03-25T06:27:39;98205.88;;;8.82;100.00
7668;BME280;3876;42.204;24.686;2024-03-25T06:30:06;98205.47;;;8.91;100.00
7668;BME280;3876;42.204;24.686;2024-03-25T06:32:50;98209.00;;;8.88;100.00
7668;BME280;3876;42.204;24.686;2024-03-25T06:35:34;98203.38;;;8.80;100.00
7668;BME280;3876;42.204;24.686;2024-03-25T06:38:00;98222.56;;;8.89;100.00
7668;BME280;3876;42.204;24.686;2024-03-25T06:40:27;98218.88;;;8.96;100.00
7668;BME280;3876;42.204;24.686;2024-03-25T06:42:52;98229.09;;;8.96;100.00
7668;BME280;3876;42.204;24.686;2024-03-25T06:45:18;98224.00;;;8.96;100.00
7668;BME280;3876;42.204;24.686;2024-03-25T06:47:44;98227.31;;;8.98;100.00
7668;BME280;3876;42.204;24.686;2024-03-25T06:50:10;98217.34;;;8.92;100.00
7668;BME280;3876;42.204;24.686;2024-03-25T06:52:35;98224.38;;;8.87;100.00
7668;BME280;3876;42.204;24.686;2024-03-25T06:55:01;98233.97;;;8.82;100.00
7668;BME280;3876;42.204;24.686;2024-03-25T06:57:28;98224.44;;;8.65;100.00
7668;BME280;3876;42.204;24.686;2024-03-25T06:59:54;98245.22;;;8.78;100.00
7668;BME280;3876;42.204;24.686;2024-03-25T07:02:20;98251.06;;;8.80;100.00
7668;BME280;3876;42.204;24.686;2024-03-25T07:04:45;98251.72;;;8.85;100.00
7668;BME280;3876;42.204;24.686;2024-03-25T07:07:11;98255.66;;;8.92;100.00
7668;BME280;3876;42.204;24.686;2024-03-25T07:09:37;98265.00;;;8.93;100.00
7668;BME280;3876;42.204;24.686;2024-03-25T07:12:03;98262.91;;;9.03;100.00
7668;BME280;3876;42.204;24.686;2024-03-25T07:14:30;98278.19;;;9.04;100.00
7668;BME280;3876;42.204;24.686;2024-03-25T07:16:56;98286.34;;;9.12;100.00
7668;BME280;3876;42.204;24.686;2024-03-25T07:19:22;98271.25;;;9.26;100.00
7668;BME280;3876;42.204;24.686;2024-03-25T07:21:48;98284.41;;;9.37;100.00
7668;BME280;3876;42.204;24.686;2024-03-25T07:24:14;98280.97;;;9.57;100.00
7668;BME280;3876;42.204;24.686;2024-03-25T07:26:39;98282.47;;;9.81;100.00
7668;BME280;3876;42.204;24.686;2024-03-25T07:29:05;98280.88;;;9.97;100.00
7668;BME280;3876;42.204;24.686;2024-03-25T07:31:32;98280.00;;;10.17;100.00
7668;BME280;3876;42.204;24.686;2024-03-25T07:33:58;98292.97;;;10.50;100.00
7668;BME280;3876;42.204;24.686;2024-03-25T07:36:24;98290.81;;;10.94;100.00
7668;BME280;3876;42.204;24.686;2024-03-25T07:38:49;98290.19;;;11.06;97.13
7668;BME280;3876;42.204;24.686;2024-03-25T07:41:15;98288.38;;;11.25;98.29
7668;BME280;3876;42.204;24.686;2024-03-25T07:43:41;98293.69;;;11.38;95.43
7668;BME280;3876;42.204;24.686;2024-03-25T07:46:06;98272.84;;;11.44;95.37
7668;BME280;3876;42.204;24.686;2024-03-25T07:48:34;98276.19;;;11.46;92.32
7668;BME280;3876;42.204;24.686;2024-03-25T07:50:59;98292.25;;;11.49;89.48
7668;BME280;3876;42.204;24.686;2024-03-25T07:53:25;98284.63;;;11.48;91.00
7668;BME280;3876;42.204;24.686;2024-03-25T07:55:51;98289.09;;;11.44;87.90
7668;BME280;3876;42.204;24.686;2024-03-25T07:58:16;98295.91;;;11.28;87.10
7668;BME280;3876;42.204;24.686;2024-03-25T08:00:42;98275.09;;;11.17;88.07
7668;BME280;3876;42.204;24.686;2024-03-25T08:03:08;98300.88;;;11.31;88.72
7668;BME280;3876;42.204;24.686;2024-03-25T08:05:35;98315.06;;;11.38;88.51
7668;BME280;3876;42.204;24.686;2024-03-25T08:08:01;98307.03;;;11.44;88.79
7668;BME280;3876;42.204;24.686;2024-03-25T08:10:26;98314.16;;;11.56;88.05
7668;BME280;3876;42.204;24.686;2024-03-25T08:12:52;98321.91;;;11.55;85.20
7668;BME280;3876;42.204;24.686;2024-03-25T08:15:18;98317.28;;;11.62;85.51
7668;BME280;3876;42.204;24.686;2024-03-25T08:17:44;98310.06;;;11.52;84.35
7668;BME280;3876;42.204;24.686;2024-03-25T08:20:10;98316.34;;;11.80;85.24
7668;BME280;3876;42.204;24.686;2024-03-25T08:22:37;98312.44;;;12.21;86.26
7668;BME280;3876;42.204;24.686;2024-03-25T08:25:04;98329.66;;;12.50;83.29
7668;BME280;3876;42.204;24.686;2024-03-25T08:27:29;98332.28;;;12.64;81.64
7668;BME280;3876;42.204;24.686;2024-03-25T08:29:55;98339.75;;;12.85;80.01
7668;BME280;3876;42.204;24.686;2024-03-25T08:32:21;98344.00;;;13.00;79.48
7668;BME280;3876;42.204;24.686;2024-03-25T08:34:46;98332.41;;;13.08;79.33
7668;BME280;3876;42.204;24.686;2024-03-25T08:37:12;98335.00;;;13.23;79.32
7668;BME280;3876;42.204;24.686;2024-03-25T08:39:39;98326.53;;;13.50;79.43
7668;BME280;3876;42.204;24.686;2024-03-25T08:42:05;98328.72;;;13.56;78.44
7668;BME280;3876;42.204;24.686;2024-03-25T08:44:31;98329.09;;;13.64;76.45
7668;BME280;3876;42.204;24.686;2024-03-25T08:46:56;98328.00;;;13.83;76.92
7668;BME280;3876;42.204;24.686;2024-03-25T08:49:22;98315.47;;;13.77;76.38
7668;BME280;3876;42.204;24.686;2024-03-25T08:51:48;98336.44;;;13.71;74.98
7668;BME280;3876;42.204;24.686;2024-03-25T08:54:14;98328.91;;;13.82;72.04
7668;BME280;3876;42.204;24.686;2024-03-25T08:56:41;98328.91;;;13.96;73.82
7668;BME280;3876;42.204;24.686;2024-03-25T08:59:06;98325.44;;;13.83;72.55
7668;BME280;3876;42.204;24.686;2024-03-25T09:01:32;98311.03;;;13.93;73.25
7668;BME280;3876;42.204;24.686;2024-03-25T09:03:58;98331.19;;;14.14;69.22
7668;BME280;3876;42.204;24.686;2024-03-25T09:06:24;98330.00;;;14.20;71.25
7668;BME280;3876;42.204;24.686;2024-03-25T09:08:49;98330.91;;;14.19;68.86
7668;BME280;3876;42.204;24.686;2024-03-25T09:11:33;98329.72;;;14.10;70.26
7668;BME280;3876;42.204;24.686;2024-03-25T09:14:00;98337.28;;;13.99;69.15
7668;BME280;3876;42.204;24.686;2024-03-25T09:16:27;98327.94;;;14.25;72.93
7668;BME280;3876;42.204;24.686;2024-03-25T09:18:53;98339.53;;;14.32;69.56
7668;BME280;3876;42.204;24.686;2024-03-25T09:21:18;98315.44;;;14.33;69.52
7668;BME280;3876;42.204;24.686;2024-03-25T09:23:44;98330.53;;;14.39;69.29
7668;BME280;3876;42.204;24.686;2024-03-25T09:26:10;98331.69;;;14.48;70.60
7668;BME280;3876;42.204;24.686;2024-03-25T09:28:36;98334.53;;;14.57;69.99
7668;BME280;3876;42.204;24.686;2024-03-25T09:31:03;98348.81;;;14.63;66.88
7668;BME280;3876;42.204;24.686;2024-03-25T09:33:29;98349.28;;;14.55;64.82
7668;BME280;3876;42.204;24.686;2024-03-25T09:35:55;98357.00;;;14.55;67.34
7668;BME280;3876;42.204;24.686;2024-03-25T09:38:20;98349.84;;;14.46;66.13
7668;BME280;3876;42.204;24.686;2024-03-25T09:40:46;98344.53;;;14.35;66.28
7668;BME280;3876;42.204;24.686;2024-03-25T09:43:16;98364.03;;;14.53;66.93
7668;BME280;3876;42.204;24.686;2024-03-25T09:45:47;98371.13;;;14.50;64.87
7668;BME280;3876;42.204;24.686;2024-03-25T09:48:16;98348.50;;;14.41;63.03
7668;BME280;3876;42.204;24.686;2024-03-25T09:50:45;98373.06;;;14.46;61.30
7668;BME280;3876;42.204;24.686;2024-03-25T09:53:11;98383.50;;;14.71;67.20
7668;BME280;3876;42.204;24.686;2024-03-25T09:55:37;98373.19;;;14.71;63.00
7668;BME280;3876;42.204;24.686;2024-03-25T09:58:03;98383.66;;;14.83;66.73
7668;BME280;3876;42.204;24.686;2024-03-25T10:00:30;98386.81;;;15.00;63.89
7668;BME280;3876;42.204;24.686;2024-03-25T10:02:56;98399.94;;;15.10;63.45
7668;BME280;3876;42.204;24.686;2024-03-25T10:05:23;98418.16;;;15.21;63.72
7668;BME280;3876;42.204;24.686;2024-03-25T10:07:49;98396.47;;;15.23;57.89
7668;BME280;3876;42.204;24.686;2024-03-25T10:10:19;98400.81;;;15.23;58.60
7668;BME280;3876;42.204;24.686;2024-03-25T10:12:45;98402.59;;;15.35;59.92
7668;BME280;3876;42.204;24.686;2024-03-25T10:15:15;98408.69;;;15.34;58.11
7668;BME280;3876;42.204;24.686;2024-03-25T10:17:41;98412.81;;;15.24;59.65
7668;BME280;3876;42.204;24.686;2024-03-25T10:20:08;98415.91;;;15.29;62.73
7668;BME280;3876;42.204;24.686;2024-03-25T10:22:42;98387.47;;;14.90;61.67
7668;BME280;3876;42.204;24.686;2024-03-25T10:25:18;98406.72;;;14.57;61.18
7668;BME280;3876;42.204;24.686;2024-03-25T10:27:53;98417.66;;;14.34;59.79
7668;BME280;3876;42.204;24.686;2024-03-25T10:30:19;98409.31;;;14.29;60.34
7668;BME280;3876;42.204;24.686;2024-03-25T10:32:45;98397.28;;;14.44;63.06
7668;BME280;3876;42.204;24.686;2024-03-25T10:35:12;98402.59;;;14.55;60.90
7668;BME280;3876;42.204;24.686;2024-03-25T10:37:39;98393.31;;;14.52;58.93
7668;BME280;3876;42.204;24.686;2024-03-25T10:40:07;98390.75;;;14.38;58.87
7668;BME280;3876;42.204;24.686;2024-03-25T10:42:37;98403.25;;;14.30;60.41
7668;BME280;3876;42.204;24.686;2024-03-25T10:45:06;98421.47;;;14.13;60.88
7668;BME280;3876;42.204;24.686;2024-03-25T10:47:34;98406.75;;;14.01;60.97
7668;BME280;3876;42.204;24.686;2024-03-25T10:50:05;98409.88;;;13.92;63.10
7668;BME280;3876;42.204;24.686;2024-03-25T10:52:34;98407.31;;;13.92;61.89
7668;BME280;3876;42.204;24.686;2024-03-25T10:55:02;98405.91;;;13.86;60.18
7668;BME280;3876;42.204;24.686;2024-03-25T10:57:30;98403.97;;;13.90;61.05
7668;BME280;3876;42.204;24.686;2024-03-25T10:59:57;98400.13;;;13.97;58.90
7668;BME280;3876;42.204;24.686;2024-03-25T11:02:24;98410.25;;;14.14;55.85
7668;BME280;3876;42.204;24.686;2024-03-25T11:04:50;98405.84;;;14.44;55.93
7668;BME280;3876;42.204;24.686;2024-03-25T11:07:17;98403.69;;;14.51;53.65
7668;BME280;3876;42.204;24.686;2024-03-25T11:09:43;98402.66;;;14.41;52.29
7668;BME280;3876;42.204;24.686;2024-03-25T11:12:10;98398.44;;;14.66;55.12
7668;BME280;3876;42.204;24.686;2024-03-25T11:14:37;98400.25;;;14.79;54.40
7668;BME280;3876;42.204;24.686;2024-03-25T11:17:14;98397.69;;;14.64;52.23
7668;BME280;3876;42.204;24.686;2024-03-25T11:19:40;98406.47;;;14.62;54.28
7668;BME280;3876;42.204;24.686;2024-03-25T11:22:09;98406.38;;;14.63;54.50
7668;BME280;3876;42.204;24.686;2024-03-25T11:24:36;98403.03;;;14.76;55.73
7668;BME280;3876;42.204;24.686;2024-03-25T11:27:03;98406.72;;;14.71;55.40
7668;BME280;3876;42.204;24.686;2024-03-25T11:29:31;98394.97;;;14.53;55.06
7668;BME280;3876;42.204;24.686;2024-03-25T11:32:00;98405.66;;;14.47;55.48
7668;BME280;3876;42.204;24.686;2024-03-25T11:34:28;98394.97;;;14.25;56.48
7668;BME280;3876;42.204;24.686;2024-03-25T11:36:54;98398.28;;;14.27;56.57
7668;BME280;3876;42.204;24.686;2024-03-25T11:39:20;98401.25;;;14.35;56.40
7668;BME280;3876;42.204;24.686;2024-03-25T11:41:46;98394.59;;;14.59;57.22
7668;BME280;3876;42.204;24.686;2024-03-25T11:44:12;98399.94;;;14.83;55.56
7668;BME280;3876;42.204;24.686;2024-03-25T11:46:38;98408.25;;;15.15;52.38
7668;BME280;3876;42.204;24.686;2024-03-25T11:49:07;98418.69;;;15.26;50.59
7668;BME280;3876;42.204;24.686;2024-03-25T11:51:33;98421.47;;;15.23;51.62
7668;BME280;3876;42.204;24.686;2024-03-25T11:53:59;98415.22;;;15.13;52.20
7668;BME280;3876;42.204;24.686;2024-03-25T11:56:25;98421.66;;;14.93;52.08
7668;BME280;3876;42.204;24.686;2024-03-25T11:58:51;98422.66;;;14.64;52.33
7668;BME280;3876;42.204;24.686;2024-03-25T12:01:17;98418.38;;;14.36;52.28
7668;BME280;3876;42.204;24.686;2024-03-25T12:03:43;98421.94;;;14.19;54.33
7668;BME280;3876;42.204;24.686;2024-03-25T12:06:10;98422.59;;;13.95;56.21
7668;BME280;3876;42.204;24.686;2024-03-25T12:08:36;98422.03;;;14.04;57.41
7668;BME280;3876;42.204;24.686;2024-03-25T12:11:02;98423.03;;;13.87;57.65
7668;BME280;3876;42.204;24.686;2024-03-25T12:13:43;98406.75;;;13.73;55.83
7668;BME280;3876;42.204;24.686;2024-03-25T12:16:09;98407.25;;;13.63;56.48
7668;BME280;3876;42.204;24.686;2024-03-25T12:18:35;98405.38;;;13.81;58.22
7668;BME280;3876;42.204;24.686;2024-03-25T12:21:02;98418.38;;;14.08;55.80
7668;BME280;3876;42.204;24.686;2024-03-25T12:23:32;98397.19;;;14.17;56.62
7668;BME280;3876;42.204;24.686;2024-03-25T12:25:58;98411.94;;;14.43;55.53
7668;BME280;3876;42.204;24.686;2024-03-25T12:28:24;98418.06;;;14.55;54.11
7668;BME280;3876;42.204;24.686;2024-03-25T12:30:51;98398.28;;;14.55;57.59
7668;BME280;3876;42.204;24.686;2024-03-25T12:33:17;98416.56;;;14.79;55.61
7668;BME280;3876;42.204;24.686;2024-03-25T12:35:45;98425.66;;;14.85;57.24
7668;BME280;3876;42.204;24.686;2024-03-25T12:38:22;98403.56;;;14.81;56.60
7668;BME280;3876;42.204;24.686;2024-03-25T12:40:49;98438.34;;;15.02;57.22
7668;BME280;3876;42.204;24.686;2024-03-25T12:43:15;98423.59;;;14.90;55.99
7668;BME280;3876;42.204;24.686;2024-03-25T12:45:41;98437.28;;;14.78;52.83
7668;BME280;3876;42.204;24.686;2024-03-25T12:48:07;98441.88;;;14.87;54.02
7668;BME280;3876;42.204;24.686;2024-03-25T12:50:33;98447.28;;;14.69;52.60
7668;BME280;3876;42.204;24.686;2024-03-25T12:52:58;98441.13;;;14.44;52.34
7668;BME280;3876;42.204;24.686;2024-03-25T12:55:24;98448.91;;;14.28;54.36
7668;BME280;3876;42.204;24.686;2024-03-25T12:57:51;98455.00;;;14.27;54.01
7668;BME280;3876;42.204;24.686;2024-03-25T13:00:17;98468.78;;;13.98;52.20
7668;BME280;3876;42.204;24.686;2024-03-25T13:02:43;98472.63;;;13.91;52.91
7668;BME280;3876;42.204;24.686;2024-03-25T13:05:09;98475.31;;;13.89;52.77
7668;BME280;3876;42.204;24.686;2024-03-25T13:07:35;98475.00;;;13.80;54.75